TimeCET,TemperatureF,Dew PointF,Humidity,Sea Level PressureIn,VisibilityMPH,Wind Direction,Wind SpeedMPH,Gust SpeedMPH,PrecipitationIn,Events,Conditions,WindDirDegrees,DateUTC
12:15 AM,33.8,30.2,87,29.89,5.0,NE,4.6,-,N/A,,Partly Cloudy,50,2012-12-06 23:15:00
12:45 AM,32.0,30.2,93,29.89,5.0,NE,3.5,-,N/A,,Partly Cloudy,40,2012-12-06 23:45:00
1:15 AM,32.0,30.2,93,29.92,5.0,North,1.2,-,N/A,,Partly Cloudy,350,2012-12-07 00:15:00
1:45 AM,30.2,28.4,93,29.92,6.2,North,2.3,-,N/A,,Partly Cloudy,360,2012-12-07 00:45:00
2:15 AM,30.2,26.6,86,29.92,6.2,North,1.2,-,N/A,,Partly Cloudy,350,2012-12-07 01:15:00
2:45 AM,30.2,26.6,86,29.92,6.2,NE,1.2,-,N/A,,Partly Cloudy,50,2012-12-07 01:45:00
3:15 AM,30.2,26.6,86,29.92,6.2,NE,2.3,-,N/A,,Partly Cloudy,40,2012-12-07 02:15:00
3:45 AM,30.2,28.4,93,29.92,6.2,NE,2.3,-,N/A,,Partly Cloudy,50,2012-12-07 02:45:00
4:15 AM,30.2,28.4,93,29.92,6.2,ENE,2.3,-,N/A,,Partly Cloudy,60,2012-12-07 03:15:00
4:45 AM,30.2,28.4,93,29.92,6.2,NNE,2.3,-,N/A,,Partly Cloudy,30,2012-12-07 03:45:00
5:15 AM,30.2,28.4,93,29.92,6.2,NNE,3.5,-,N/A,,Scattered Clouds,20,2012-12-07 04:15:00
5:45 AM,28.4,26.6,93,29.92,6.2,NE,2.3,-,N/A,,Partly Cloudy,50,2012-12-07 04:45:00
6:15 AM,28.4,26.6,93,29.92,6.2,NNE,2.3,-,N/A,,Partly Cloudy,30,2012-12-07 05:15:00
6:45 AM,28.4,26.6,93,29.92,5.0,NNE,2.3,-,N/A,,Partly Cloudy,20,2012-12-07 05:45:00
7:15 AM,28.4,26.6,93,29.92,5.0,NE,4.6,-,N/A,,Partly Cloudy,50,2012-12-07 06:15:00
7:45 AM,28.4,26.6,93,29.92,5.0,NE,3.5,-,N/A,,Partly Cloudy,40,2012-12-07 06:45:00
8:15 AM,28.4,24.8,86,29.92,5.0,NE,2.3,-,N/A,,Partly Cloudy,50,2012-12-07 07:15:00
8:45 AM,30.2,28.4,93,29.92,6.2,NE,2.3,-,N/A,,Partly Cloudy,40,2012-12-07 07:45:00
9:15 AM,32.0,30.2,93,29.92,6.2,NNE,2.3,-,N/A,,Scattered Clouds,30,2012-12-07 08:15:00
9:45 AM,32.0,30.2,93,29.92,6.2,NNE,1.2,-,N/A,,Scattered Clouds,30,2012-12-07 08:45:00
10:15 AM,33.8,30.2,87,29.92,6.2,NNE,1.2,-,N/A,,Scattered Clouds,20,2012-12-07 09:15:00
10:45 AM,37.4,32.0,81,29.92,6.2,Calm,Calm,-,N/A,,Mostly Cloudy,0,2012-12-07 09:45:00
11:15 AM,37.4,32.0,81,29.92,6.2,West,2.3,-,N/A,,Light Drizzle,280,2012-12-07 10:15:00
11:45 AM,44.6,32.0,61,29.89,6.2,SSE,12.7,-,N/A,,Light Drizzle,150,2012-12-07 10:45:00
12:15 PM,44.6,30.2,57,29.89,6.2,SE,12.7,-,N/A,,Mostly Cloudy,140,2012-12-07 11:15:00
12:45 PM,46.4,33.8,62,29.86,6.2,SSE,12.7,-,N/A,,Scattered Clouds,150,2012-12-07 11:45:00
1:15 PM,48.2,37.4,66,29.86,6.2,South,9.2,-,N/A,,Scattered Clouds,170,2012-12-07 12:15:00
1:45 PM,48.2,37.4,66,29.86,6.2,SSE,11.5,-,N/A,,Scattered Clouds,160,2012-12-07 12:45:00
2:15 PM,48.2,37.4,66,29.83,6.2,South,11.5,-,N/A,,Scattered Clouds,170,2012-12-07 13:15:00
2:45 PM,48.2,37.4,66,29.83,6.2,South,10.4,-,N/A,,Scattered Clouds,180,2012-12-07 13:45:00
3:15 PM,48.2,37.4,66,29.83,6.2,South,8.1,-,N/A,,Scattered Clouds,170,2012-12-07 14:15:00
3:45 PM,48.2,37.4,66,29.83,6.2,South,5.8,-,N/A,,Mostly Cloudy,190,2012-12-07 14:45:00
4:15 PM,48.2,37.4,66,29.80,6.2,South,5.8,-,N/A,,Mostly Cloudy,170,2012-12-07 15:15:00
4:45 PM,46.4,39.2,76,29.80,6.2,SSE,10.4,-,N/A,Rain,Light Rain,150,2012-12-07 15:45:00
5:15 PM,46.4,41.0,81,29.80,6.2,SSE,5.8,-,N/A,Rain,Light Rain,150,2012-12-07 16:15:00
5:45 PM,46.4,41.0,81,29.77,6.2,SSE,6.9,-,N/A,Rain,Light Rain,160,2012-12-07 16:45:00
6:15 PM,46.4,42.8,87,29.77,5.0,South,10.4,-,N/A,Rain,Light Rain,170,2012-12-07 17:15:00
6:45 PM,46.4,42.8,87,29.77,4.3,WSW,2.3,-,N/A,Rain,Light Rain,240,2012-12-07 17:45:00
7:15 PM,46.4,44.6,93,29.74,4.3,SSE,9.2,-,N/A,Rain,Light Rain,160,2012-12-07 18:15:00
7:45 PM,46.4,44.6,93,29.74,4.3,SSE,4.6,-,N/A,Rain,Light Rain,150,2012-12-07 18:45:00
8:15 PM,46.4,44.6,93,29.71,4.3,South,6.9,-,N/A,Rain,Light Rain,170,2012-12-07 19:15:00
8:45 PM,46.4,44.6,93,29.71,3.1,SSE,12.7,-,N/A,Rain,Light Rain,160,2012-12-07 19:45:00
9:15 PM,48.2,44.6,87,29.68,3.1,South,13.8,-,N/A,Rain,Light Rain,170,2012-12-07 20:15:00
9:45 PM,48.2,44.6,87,29.68,4.3,SSE,12.7,-,N/A,Rain,Light Rain,160,2012-12-07 20:45:00
10:15 PM,48.2,44.6,87,29.65,6.2,South,11.5,-,N/A,Rain,Light Rain,180,2012-12-07 21:15:00
10:45 PM,48.2,44.6,87,29.65,6.2,South,6.9,-,N/A,,Scattered Clouds,180,2012-12-07 21:45:00
11:15 PM,50.0,41.0,71,29.62,6.2,South,10.4,-,N/A,,Scattered Clouds,190,2012-12-07 22:15:00
11:45 PM,50.0,42.8,76,29.62,4.3,SW,10.4,21.9,N/A,Rain,Light Rain,220,2012-12-07 22:45:00